Wetterdaten: Woche 26.01.09 - 01.02.09 (KW5)
Datum Zeit Temperatur Luftfeuchte Luftdruck Niederschlag Wind Richtung Sonnenschein Solar Taupunkt Windchill Windben
26.01.2009 00:00 -2.4 C 93 % 998.7 hPa 0.0 l/m 0.3 km/h (0 Bft) O 0.00 h 0 W/m -3.3 C -2.4 C 0.9 km/h (0 Bft)
26.01.2009 01:00 -2.8 C 94 % 998.8 hPa 0.0 l/m 0.2 km/h (0 Bft) O 0.00 h 0 W/m -3.5 C -2.8 C 0.5 km/h (0 Bft)
26.01.2009 02:00 -3.2 C 95 % 998.9 hPa 0.0 l/m 0.9 km/h (0 Bft) O 0.00 h 0 W/m -3.9 C -3.2 C 1.6 km/h (1 Bft)
26.01.2009 03:00 -3.3 C 96 % 999.1 hPa 0.0 l/m 1.0 km/h (0 Bft) O 0.00 h 0 W/m -3.9 C -3.3 C 1.7 km/h (1 Bft)
26.01.2009 04:00 -3.6 C 95 % 999.1 hPa 0.0 l/m 0.0 km/h (0 Bft) N 0.00 h 0 W/m -4.2 C -3.6 C 0.0 km/h (0 Bft)
26.01.2009 05:00 -3.5 C 96 % 999.5 hPa 0.0 l/m 1.0 km/h (0 Bft) O 0.00 h 0 W/m -4.0 C -3.5 C 2.0 km/h (1 Bft)
26.01.2009 06:00 -3.4 C 96 % 999.8 hPa 0.0 l/m 0.2 km/h (0 Bft) O 0.00 h 0 W/m -4.0 C -3.4 C 0.4 km/h (0 Bft)
26.01.2009 07:00 -3.5 C 95 % 1000.2 hPa 0.0 l/m 0.1 km/h (0 Bft) O 0.00 h 5 W/m -4.2 C -3.5 C 0.3 km/h (0 Bft)
26.01.2009 08:00 -3.8 C 94 % 1000.7 hPa 0.0 l/m 0.1 km/h (0 Bft) O 0.17 h 25 W/m -4.6 C -3.8 C 0.3 km/h (0 Bft)
26.01.2009 09:00 -3.0 C 94 % 1001.1 hPa 0.0 l/m 0.0 km/h (0 Bft) N 0.43 h 93 W/m -3.8 C -3.0 C 0.1 km/h (0 Bft)
26.01.2009 10:00 -1.9 C 92 % 1001.6 hPa 0.0 l/m 0.0 km/h (0 Bft) O 0.03 h 138 W/m -3.0 C -1.9 C 0.1 km/h (0 Bft)
26.01.2009 11:00 -0.8 C 90 % 1001.7 hPa 0.0 l/m 0.1 km/h (0 Bft) O 0.63 h 207 W/m -2.2 C -0.8 C 0.7 km/h (0 Bft)
26.01.2009 12:00 0.0 C 86 % 1001.6 hPa 0.0 l/m 0.3 km/h (0 Bft) O 0.18 h 187 W/m -2.0 C 0.0 C 1.3 km/h (1 Bft)
26.01.2009 13:00 1.1 C 82 % 1001.3 hPa 0.0 l/m 0.3 km/h (0 Bft) O 0.52 h 211 W/m -1.5 C 1.1 C 1.2 km/h (1 Bft)
26.01.2009 14:00 2.0 C 80 % 1001.2 hPa 0.0 l/m 0.5 km/h (0 Bft) O-NO 0.80 h 207 W/m -1.2 C 2.0 C 1.3 km/h (1 Bft)
26.01.2009 15:00 2.2 C 79 % 1001.2 hPa 0.0 l/m 0.1 km/h (0 Bft) N-NO 0.43 h 112 W/m -1.1 C 2.2 C 0.6 km/h (0 Bft)
26.01.2009 16:00 1.3 C 84 % 1001.5 hPa 0.0 l/m 0.1 km/h (0 Bft) N-NO 0.00 h 30 W/m -1.1 C 1.3 C 0.3 km/h (0 Bft)
26.01.2009 17:00 0.7 C 86 % 1002.1 hPa 0.0 l/m 0.7 km/h (0 Bft) O-NO 0.03 h 8 W/m -1.4 C 0.7 C 1.1 km/h (1 Bft)
26.01.2009 18:00 -0.1 C 90 % 1002.6 hPa 0.0 l/m 0.2 km/h (0 Bft) O-NO 0.00 h 0 W/m -1.6 C -0.1 C 0.7 km/h (0 Bft)
26.01.2009 19:00 -0.8 C 92 % 1003.9 hPa 0.0 l/m 1.7 km/h (1 Bft) O-NO 0.00 h 0 W/m -2.0 C -1.0 C 2.4 km/h (1 Bft)
26.01.2009 20:00 -1.0 C 93 % 1004.6 hPa 0.0 l/m 0.2 km/h (0 Bft) O-NO 0.00 h 0 W/m -1.9 C -1.0 C 0.5 km/h (0 Bft)
26.01.2009 21:00 -1.3 C 95 % 1004.9 hPa 0.0 l/m 1.7 km/h (1 Bft) O-NO 0.00 h 0 W/m -2.0 C -1.3 C 3.0 km/h (1 Bft)
26.01.2009 22:00 -1.6 C 95 % 1005.7 hPa 0.0 l/m 1.3 km/h (1 Bft) O-NO 0.00 h 0 W/m -2.4 C -1.8 C 2.5 km/h (1 Bft)
26.01.2009 23:00 -2.0 C 95 % 1006.3 hPa 0.0 l/m 0.3 km/h (0 Bft) O 0.00 h 0 W/m -2.7 C -2.0 C 0.7 km/h (0 Bft)
27.01.2009 00:00 -2.3 C 96 % 1006.6 hPa 0.0 l/m 0.1 km/h (0 Bft) O 0.00 h 0 W/m -2.9 C -2.3 C 0.4 km/h (0 Bft)
27.01.2009 01:00 -2.8 C 96 % 1007.1 hPa 0.0 l/m 0.0 km/h (0 Bft) N 0.00 h 0 W/m -3.3 C -2.8 C 0.0 km/h (0 Bft)
27.01.2009 02:00 -3.1 C 97 % 1007.4 hPa 0.0 l/m 0.4 km/h (0 Bft) O 0.00 h 0 W/m -3.5 C -3.1 C 0.9 km/h (0 Bft)
27.01.2009 03:00 -2.9 C 97 % 1008.1 hPa 0.0 l/m 0.0 km/h (0 Bft) N 0.00 h 0 W/m -3.3 C -2.9 C 0.1 km/h (0 Bft)
27.01.2009 04:00 -2.5 C 97 % 1008.4 hPa 0.0 l/m 0.1 km/h (0 Bft) O 0.00 h 0 W/m -2.9 C -2.5 C 0.6 km/h (0 Bft)
27.01.2009 05:00 -2.6 C 97 % 1008.5 hPa 0.0 l/m 0.0 km/h (0 Bft) N 0.00 h 0 W/m -3.0 C -2.6 C 0.0 km/h (0 Bft)
27.01.2009 06:00 -2.4 C 97 % 1009.2 hPa 0.0 l/m 1.2 km/h (1 Bft) O 0.00 h 0 W/m -2.8 C -2.5 C 2.3 km/h (1 Bft)
27.01.2009 07:00 -2.4 C 97 % 1009.9 hPa 0.0 l/m 1.1 km/h (0 Bft) NW 0.00 h 0 W/m -2.8 C -2.4 C 2.1 km/h (1 Bft)
27.01.2009 08:00 -2.5 C 97 % 1010.6 hPa 0.0 l/m 1.4 km/h (1 Bft) O-SO 0.00 h 15 W/m -2.9 C -2.6 C 2.6 km/h (1 Bft)
27.01.2009 09:00 -1.9 C 98 % 1011.3 hPa 0.0 l/m 1.4 km/h (1 Bft) NW 0.00 h 47 W/m -2.2 C -2.1 C 2.7 km/h (1 Bft)
27.01.2009 10:00 -0.9 C 98 % 1011.8 hPa 0.0 l/m 0.8 km/h (0 Bft) N 0.00 h 69 W/m -1.2 C -1.0 C 1.8 km/h (1 Bft)
27.01.2009 11:00 -0.3 C 96 % 1012.1 hPa 0.0 l/m 0.6 km/h (0 Bft) N-NO 0.00 h 101 W/m -0.9 C -0.3 C 1.6 km/h (1 Bft)
27.01.2009 12:00 0.4 C 92 % 1012.3 hPa 0.0 l/m 2.0 km/h (1 Bft) N-NW 0.00 h 128 W/m -0.8 C 0.3 C 4.1 km/h (1 Bft)
27.01.2009 13:00 0.9 C 87 % 1012.2 hPa 0.0 l/m 0.5 km/h (0 Bft) N-NW 0.00 h 103 W/m -1.0 C 0.9 C 1.2 km/h (1 Bft)
27.01.2009 14:00 1.2 C 85 % 1012.7 hPa 0.0 l/m 0.5 km/h (0 Bft) NW 0.00 h 71 W/m -1.0 C 1.2 C 2.0 km/h (1 Bft)
27.01.2009 15:00 1.1 C 86 % 1013.0 hPa 0.0 l/m 2.2 km/h (1 Bft) NW 0.00 h 59 W/m -1.0 C 0.9 C 4.4 km/h (1 Bft)
27.01.2009 16:00 1.0 C 86 % 1013.7 hPa 0.0 l/m 2.2 km/h (1 Bft) N 0.07 h 37 W/m -1.0 C 0.9 C 4.3 km/h (1 Bft)
27.01.2009 17:00 0.7 C 86 % 1014.5 hPa 0.0 l/m 0.2 km/h (0 Bft) NW 0.17 h 12 W/m -1.3 C 0.7 C 0.7 km/h (0 Bft)
27.01.2009 18:00 0.4 C 87 % 1015.0 hPa 0.0 l/m 0.2 km/h (0 Bft) NW 0.00 h 0 W/m -1.4 C 0.4 C 0.5 km/h (0 Bft)
27.01.2009 19:00 0.4 C 88 % 1015.5 hPa 0.0 l/m 0.3 km/h (0 Bft) NW 0.00 h 0 W/m -1.3 C 0.4 C 0.8 km/h (0 Bft)
27.01.2009 20:00 0.3 C 89 % 1015.7 hPa 0.0 l/m 0.1 km/h (0 Bft) NW 0.00 h 0 W/m -1.3 C 0.3 C 0.3 km/h (0 Bft)
27.01.2009 21:00 0.3 C 90 % 1016.0 hPa 0.0 l/m 0.1 km/h (0 Bft) NW 0.00 h 0 W/m -1.2 C 0.3 C 0.4 km/h (0 Bft)
27.01.2009 22:00 0.1 C 90 % 1016.0 hPa 0.0 l/m 0.3 km/h (0 Bft) NW 0.00 h 0 W/m -1.3 C 0.1 C 0.7 km/h (0 Bft)
27.01.2009 23:00 -0.2 C 90 % 1016.1 hPa 0.0 l/m 0.9 km/h (0 Bft) NW 0.00 h 0 W/m -1.6 C -0.2 C 1.9 km/h (1 Bft)
28.01.2009 00:00 -0.6 C 91 % 1016.1 hPa 0.0 l/m 0.4 km/h (0 Bft) N-NO 0.00 h 0 W/m -1.9 C -0.6 C 1.1 km/h (0 Bft)
28.01.2009 01:00 -0.7 C 91 % 1016.1 hPa 0.0 l/m 0.3 km/h (0 Bft) N-NO 0.00 h 0 W/m -1.9 C -0.7 C 0.7 km/h (0 Bft)
28.01.2009 02:00 -0.7 C 92 % 1016.3 hPa 0.0 l/m 0.1 km/h (0 Bft) N-NO 0.00 h 0 W/m -1.8 C -0.7 C 0.2 km/h (0 Bft)
28.01.2009 03:00 -0.8 C 92 % 1016.2 hPa 0.0 l/m 0.1 km/h (0 Bft) N-NO 0.00 h 0 W/m -1.9 C -0.8 C 0.3 km/h (0 Bft)
28.01.2009 04:00 -1.0 C 92 % 1016.4 hPa 0.0 l/m 0.4 km/h (0 Bft) N-NO 0.00 h 0 W/m -2.1 C -1.0 C 1.4 km/h (1 Bft)
28.01.2009 05:00 -1.1 C 90 % 1016.6 hPa 0.0 l/m 0.1 km/h (0 Bft) N-NO 0.00 h 0 W/m -2.6 C -1.1 C 0.5 km/h (0 Bft)
28.01.2009 06:00 -1.1 C 88 % 1016.6 hPa 0.0 l/m 0.0 km/h (0 Bft) N-NO 0.00 h 0 W/m -2.9 C -1.1 C 0.2 km/h (0 Bft)
28.01.2009 07:00 -1.1 C 85 % 1016.7 hPa 0.0 l/m 0.1 km/h (0 Bft) N-NO 0.00 h 0 W/m -3.2 C -1.1 C 0.3 km/h (0 Bft)
28.01.2009 08:00 -1.1 C 83 % 1017.1 hPa 0.0 l/m 0.5 km/h (0 Bft) NW 0.00 h 19 W/m -3.5 C -1.1 C 1.6 km/h (1 Bft)
28.01.2009 09:00 -0.6 C 79 % 1017.0 hPa 0.0 l/m 1.2 km/h (1 Bft) NW 0.00 h 59 W/m -3.8 C -0.6 C 3.3 km/h (1 Bft)
28.01.2009 10:00 0.2 C 73 % 1016.9 hPa 0.0 l/m 2.9 km/h (1 Bft) N-NO 0.00 h 103 W/m -4.0 C -0.1 C 7.5 km/h (2 Bft)
28.01.2009 11:00 0.6 C 70 % 1017.0 hPa 0.0 l/m 2.9 km/h (1 Bft) NO 0.00 h 139 W/m -4.2 C 0.2 C 6.9 km/h (2 Bft)
28.01.2009 12:00 1.4 C 65 % 1016.8 hPa 0.0 l/m 2.6 km/h (1 Bft) N-NO 0.43 h 225 W/m -4.4 C 1.1 C 6.0 km/h (2 Bft)
28.01.2009 13:00 1.3 C 66 % 1016.5 hPa 0.0 l/m 2.7 km/h (1 Bft) O 0.00 h 138 W/m -4.4 C 1.0 C 5.7 km/h (1 Bft)
28.01.2009 14:00 1.2 C 68 % 1016.4 hPa 0.0 l/m 1.8 km/h (1 Bft) O-SO 0.00 h 105 W/m -4.2 C 1.1 C 4.3 km/h (1 Bft)
28.01.2009 15:00 1.3 C 66 % 1016.7 hPa 0.0 l/m 2.0 km/h (1 Bft) NO 0.00 h 59 W/m -4.4 C 1.1 C 5.4 km/h (1 Bft)
28.01.2009 16:00 1.2 C 66 % 1017.0 hPa 0.0 l/m 0.3 km/h (0 Bft) O 0.00 h 19 W/m -4.4 C 1.2 C 1.2 km/h (1 Bft)
28.01.2009 17:00 0.9 C 69 % 1017.1 hPa 0.0 l/m 0.3 km/h (0 Bft) O-NO 0.00 h 6 W/m -4.1 C 0.9 C 1.0 km/h (0 Bft)
28.01.2009 18:00 0.7 C 71 % 1017.2 hPa 0.0 l/m 0.2 km/h (0 Bft) N-NO 0.00 h 0 W/m -4.0 C 0.7 C 1.3 km/h (1 Bft)
28.01.2009 19:00 0.6 C 72 % 1017.2 hPa 0.0 l/m 0.1 km/h (0 Bft) O-NO 0.00 h 0 W/m -3.8 C 0.6 C 0.8 km/h (0 Bft)
28.01.2009 20:00 0.7 C 73 % 1017.3 hPa 0.0 l/m 0.5 km/h (0 Bft) O-NO 0.00 h 0 W/m -3.6 C 0.7 C 1.7 km/h (1 Bft)
28.01.2009 21:00 0.8 C 75 % 1017.3 hPa 0.0 l/m 1.5 km/h (1 Bft) O-NO 0.00 h 0 W/m -3.0 C 0.7 C 3.8 km/h (1 Bft)
28.01.2009 22:00 0.9 C 77 % 1017.2 hPa 0.0 l/m 1.5 km/h (1 Bft) O-SO 0.00 h 0 W/m -2.7 C 0.7 C 3.6 km/h (1 Bft)
28.01.2009 23:00 0.9 C 77 % 1017.2 hPa 0.0 l/m 1.5 km/h (1 Bft) O 0.00 h 0 W/m -2.7 C 0.8 C 3.9 km/h (1 Bft)
29.01.2009 00:00 0.8 C 75 % 1017.1 hPa 0.0 l/m 2.3 km/h (1 Bft) N-NO 0.00 h 0 W/m -3.0 C 0.6 C 5.6 km/h (1 Bft)
29.01.2009 01:00 0.6 C 74 % 1017.3 hPa 0.0 l/m 2.5 km/h (1 Bft) NO 0.00 h 0 W/m -3.5 C 0.2 C 5.7 km/h (1 Bft)
29.01.2009 02:00 0.4 C 74 % 1017.3 hPa 0.0 l/m 3.6 km/h (1 Bft) O-SO 0.00 h 0 W/m -3.7 C -0.4 C 7.5 km/h (2 Bft)
29.01.2009 03:00 0.4 C 74 % 1017.1 hPa 0.0 l/m 2.8 km/h (1 Bft) N-NO 0.00 h 0 W/m -3.7 C -0.0 C 6.4 km/h (2 Bft)
29.01.2009 04:00 0.2 C 75 % 1016.9 hPa 0.0 l/m 1.9 km/h (1 Bft) NO 0.00 h 0 W/m -3.7 C 0.1 C 4.6 km/h (1 Bft)
29.01.2009 05:00 0.1 C 75 % 1017.0 hPa 0.0 l/m 1.7 km/h (1 Bft) NO 0.00 h 0 W/m -3.8 C -0.2 C 4.5 km/h (1 Bft)
29.01.2009 06:00 0.1 C 75 % 1017.1 hPa 0.0 l/m 2.6 km/h (1 Bft) N-NO 0.00 h 0 W/m -3.8 C -0.4 C 5.3 km/h (1 Bft)
29.01.2009 07:00 -0.0 C 75 % 1017.4 hPa 0.0 l/m 1.3 km/h (1 Bft) N-NO 0.00 h 0 W/m -3.9 C -0.1 C 3.3 km/h (1 Bft)
29.01.2009 08:00 -0.1 C 76 % 1017.7 hPa 0.0 l/m 1.9 km/h (1 Bft) N 0.00 h 10 W/m -3.8 C -0.3 C 4.3 km/h (1 Bft)
29.01.2009 09:00 0.1 C 76 % 1017.7 hPa 0.0 l/m 2.7 km/h (1 Bft) N-NO 0.00 h 22 W/m -3.6 C -0.4 C 6.3 km/h (2 Bft)
29.01.2009 10:00 0.5 C 76 % 1017.9 hPa 0.0 l/m 1.6 km/h (1 Bft) N-NO 0.00 h 44 W/m -3.2 C 0.5 C 3.9 km/h (1 Bft)
29.01.2009 11:00 1.0 C 75 % 1018.2 hPa 0.0 l/m 2.9 km/h (1 Bft) N 0.00 h 60 W/m -2.9 C 0.4 C 6.7 km/h (2 Bft)
29.01.2009 12:00 1.3 C 75 % 1018.0 hPa 0.0 l/m 2.8 km/h (1 Bft) N-NO 0.00 h 76 W/m -2.6 C 0.9 C 6.1 km/h (2 Bft)
29.01.2009 13:00 1.8 C 74 % 1017.8 hPa 0.0 l/m 2.6 km/h (1 Bft) N-NO 0.00 h 93 W/m -2.4 C 1.4 C 6.0 km/h (2 Bft)
29.01.2009 14:00 2.2 C 73 % 1017.5 hPa 0.0 l/m 1.8 km/h (1 Bft) N 0.00 h 78 W/m -2.2 C 2.0 C 4.7 km/h (1 Bft)
29.01.2009 15:00 2.3 C 72 % 1018.0 hPa 0.0 l/m 1.4 km/h (1 Bft) O 0.00 h 58 W/m -2.2 C 2.2 C 3.7 km/h (1 Bft)
29.01.2009 16:00 2.3 C 72 % 1018.4 hPa 0.0 l/m 2.2 km/h (1 Bft) O-SO 0.00 h 31 W/m -2.3 C 2.1 C 4.4 km/h (1 Bft)
29.01.2009 17:00 2.1 C 72 % 1018.7 hPa 0.0 l/m 1.3 km/h (1 Bft) O 0.00 h 8 W/m -2.4 C 2.0 C 3.4 km/h (1 Bft)
29.01.2009 18:00 1.9 C 73 % 1019.0 hPa 0.0 l/m 0.4 km/h (0 Bft) N-NO 0.00 h 0 W/m -2.4 C 1.9 C 1.4 km/h (1 Bft)
29.01.2009 19:00 1.8 C 73 % 1019.3 hPa 0.0 l/m 2.3 km/h (1 Bft) O 0.00 h 0 W/m -2.6 C 1.5 C 5.3 km/h (1 Bft)
29.01.2009 20:00 1.6 C 72 % 1019.4 hPa 0.0 l/m 2.8 km/h (1 Bft) O 0.00 h 0 W/m -2.8 C 1.2 C 6.1 km/h (2 Bft)
29.01.2009 21:00 1.4 C 73 % 1019.5 hPa 0.0 l/m 2.0 km/h (1 Bft) O 0.00 h 0 W/m -2.8 C 1.2 C 4.8 km/h (1 Bft)
29.01.2009 22:00 1.3 C 75 % 1019.9 hPa 0.0 l/m 1.0 km/h (0 Bft) O-SO 0.00 h 0 W/m -2.7 C 1.3 C 2.9 km/h (1 Bft)
29.01.2009 23:00 1.3 C 76 % 1019.8 hPa 0.0 l/m 0.6 km/h (0 Bft) O-SO 0.00 h 0 W/m -2.5 C 1.3 C 1.8 km/h (1 Bft)
30.01.2009 00:00 1.2 C 76 % 1020.0 hPa 0.0 l/m 0.2 km/h (0 Bft) SO 0.00 h 0 W/m -2.6 C 1.1 C 0.7 km/h (0 Bft)
30.01.2009 01:00 1.1 C 77 % 1020.0 hPa 0.0 l/m 0.1 km/h (0 Bft) O-NO 0.00 h 0 W/m -2.6 C 1.1 C 0.5 km/h (0 Bft)
30.01.2009 02:00 0.9 C 77 % 1019.9 hPa 0.0 l/m 1.2 km/h (1 Bft) O 0.00 h 0 W/m -2.7 C 0.8 C 3.4 km/h (1 Bft)
30.01.2009 03:00 0.9 C 76 % 1020.0 hPa 0.0 l/m 2.7 km/h (1 Bft) O-SO 0.00 h 0 W/m -2.9 C 0.4 C 6.7 km/h (2 Bft)
30.01.2009 04:00 0.8 C 75 % 1020.1 hPa 0.0 l/m 2.8 km/h (1 Bft) O-SO 0.00 h 0 W/m -3.1 C 0.5 C 6.6 km/h (2 Bft)
30.01.2009 05:00 0.8 C 75 % 1020.1 hPa 0.0 l/m 3.2 km/h (1 Bft) O 0.00 h 0 W/m -3.1 C 0.4 C 6.4 km/h (2 Bft)
30.01.2009 06:00 0.7 C 76 % 1020.1 hPa 0.0 l/m 2.0 km/h (1 Bft) O-SO 0.00 h 0 W/m -3.1 C 0.4 C 4.6 km/h (1 Bft)
30.01.2009 07:00 0.5 C 76 % 1020.2 hPa 0.0 l/m 1.8 km/h (1 Bft) NO 0.00 h 0 W/m -3.2 C 0.3 C 4.9 km/h (1 Bft)
30.01.2009 08:00 0.4 C 76 % 1020.5 hPa 0.0 l/m 1.9 km/h (1 Bft) O 0.00 h 11 W/m -3.3 C 0.1 C 5.2 km/h (1 Bft)
30.01.2009 09:00 0.4 C 76 % 1020.8 hPa 0.0 l/m 2.8 km/h (1 Bft) N-NO 0.00 h 26 W/m -3.3 C -0.0 C 6.1 km/h (2 Bft)
30.01.2009 10:00 0.5 C 76 % 1021.0 hPa 0.0 l/m 3.2 km/h (1 Bft) N-NO 0.00 h 55 W/m -3.2 C -0.1 C 6.9 km/h (2 Bft)
30.01.2009 11:00 0.8 C 75 % 1021.1 hPa 0.0 l/m 3.6 km/h (1 Bft) O 0.00 h 80 W/m -3.1 C 0.1 C 7.6 km/h (2 Bft)
30.01.2009 12:00 0.8 C 75 % 1020.6 hPa 0.0 l/m 3.9 km/h (1 Bft) O-SO 0.00 h 81 W/m -3.1 C 0.1 C 8.1 km/h (2 Bft)
30.01.2009 13:00 1.0 C 75 % 1019.9 hPa 0.0 l/m 3.4 km/h (1 Bft) NO 0.00 h 80 W/m -2.9 C 0.3 C 7.9 km/h (2 Bft)
30.01.2009 14:00 1.3 C 75 % 1019.3 hPa 0.0 l/m 3.0 km/h (1 Bft) O-SO 0.00 h 65 W/m -2.7 C 0.8 C 6.5 km/h (2 Bft)
30.01.2009 15:00 1.5 C 75 % 1019.0 hPa 0.0 l/m 2.9 km/h (1 Bft) O-SO 0.00 h 53 W/m -2.5 C 1.1 C 7.0 km/h (2 Bft)
30.01.2009 16:00 1.4 C 74 % 1019.0 hPa 0.0 l/m 2.9 km/h (1 Bft) O 0.00 h 21 W/m -2.6 C 1.2 C 6.3 km/h (2 Bft)
30.01.2009 17:00 1.2 C 75 % 1019.6 hPa 0.0 l/m 2.4 km/h (1 Bft) N-NO 0.00 h 6 W/m -2.7 C 1.0 C 5.5 km/h (1 Bft)
30.01.2009 18:00 0.9 C 76 % 1020.0 hPa 0.0 l/m 2.6 km/h (1 Bft) O 0.00 h 0 W/m -2.8 C 0.6 C 6.0 km/h (2 Bft)
30.01.2009 19:00 0.8 C 76 % 1020.2 hPa 0.0 l/m 1.7 km/h (1 Bft) O-NO 0.00 h 0 W/m -3.0 C 0.6 C 4.1 km/h (1 Bft)
30.01.2009 20:00 0.6 C 77 % 1019.9 hPa 0.0 l/m 2.1 km/h (1 Bft) NO 0.00 h 0 W/m -3.0 C 0.4 C 5.2 km/h (1 Bft)
30.01.2009 21:00 0.4 C 78 % 1019.5 hPa 0.0 l/m 2.1 km/h (1 Bft) NO 0.00 h 0 W/m -3.0 C 0.2 C 5.2 km/h (1 Bft)
30.01.2009 22:00 0.1 C 77 % 1019.5 hPa 0.0 l/m 2.7 km/h (1 Bft) NO 0.00 h 0 W/m -3.3 C -0.3 C 6.4 km/h (2 Bft)
30.01.2009 23:00 -0.3 C 79 % 1019.3 hPa 0.0 l/m 2.9 km/h (1 Bft) O 0.00 h 0 W/m -3.5 C -0.7 C 6.9 km/h (2 Bft)
31.01.2009 00:00 -0.6 C 80 % 1019.1 hPa 0.0 l/m 2.7 km/h (1 Bft) O 0.00 h 0 W/m -3.7 C -1.0 C 6.1 km/h (2 Bft)
31.01.2009 01:00 -1.0 C 80 % 1018.7 hPa 0.0 l/m 4.1 km/h (1 Bft) NO 0.00 h 0 W/m -4.0 C -1.8 C 9.0 km/h (2 Bft)
31.01.2009 02:00 -1.2 C 80 % 1018.7 hPa 0.0 l/m 4.5 km/h (1 Bft) O 0.00 h 0 W/m -4.2 C -2.3 C 9.6 km/h (2 Bft)
31.01.2009 03:00 -1.3 C 81 % 1018.4 hPa 0.0 l/m 2.9 km/h (1 Bft) N-NO 0.00 h 0 W/m -4.2 C -1.8 C 6.7 km/h (2 Bft)
31.01.2009 04:00 -1.6 C 81 % 1018.3 hPa 0.0 l/m 3.9 km/h (1 Bft) N-NO 0.00 h 0 W/m -4.5 C -2.4 C 8.6 km/h (2 Bft)
31.01.2009 05:00 -1.9 C 80 % 1018.2 hPa 0.0 l/m 3.2 km/h (1 Bft) O-NO 0.00 h 0 W/m -4.9 C -2.4 C 7.3 km/h (2 Bft)
31.01.2009 06:00 -2.2 C 78 % 1018.1 hPa 0.0 l/m 3.5 km/h (1 Bft) N-NO 0.00 h 0 W/m -5.5 C -3.1 C 8.1 km/h (2 Bft)
31.01.2009 07:00 -2.4 C 77 % 1017.9 hPa 0.0 l/m 2.2 km/h (1 Bft) NO 0.00 h 0 W/m -5.8 C -2.5 C 5.8 km/h (2 Bft)
31.01.2009 08:00 -2.6 C 77 % 1017.7 hPa 0.0 l/m 3.2 km/h (1 Bft) N-NO 0.00 h 10 W/m -6.0 C -3.4 C 7.5 km/h (2 Bft)
31.01.2009 09:00 -2.5 C 76 % 1017.3 hPa 0.0 l/m 4.1 km/h (1 Bft) O 0.00 h 34 W/m -6.2 C -3.6 C 9.5 km/h (2 Bft)
31.01.2009 10:00 -2.3 C 73 % 1016.9 hPa 0.0 l/m 5.9 km/h (2 Bft) O 0.00 h 65 W/m -6.4 C -4.2 C 12.0 km/h (2 Bft)
31.01.2009 11:00 -1.9 C 72 % 1016.7 hPa 0.0 l/m 3.6 km/h (1 Bft) O 0.00 h 78 W/m -6.3 C -2.6 C 7.4 km/h (2 Bft)
31.01.2009 12:00 -1.7 C 71 % 1016.1 hPa 0.0 l/m 4.6 km/h (1 Bft) O 0.00 h 82 W/m -6.2 C -2.9 C 10.5 km/h (2 Bft)
31.01.2009 13:00 -1.5 C 71 % 1015.4 hPa 0.0 l/m 4.4 km/h (1 Bft) O 0.00 h 77 W/m -6.1 C -2.7 C 9.4 km/h (2 Bft)
31.01.2009 14:00 -1.4 C 70 % 1014.9 hPa 0.0 l/m 4.5 km/h (1 Bft) N-NO 0.00 h 61 W/m -6.1 C -2.6 C 9.4 km/h (2 Bft)
31.01.2009 15:00 -1.6 C 71 % 1014.8 hPa 0.0 l/m 5.8 km/h (2 Bft) O-SO 0.00 h 34 W/m -6.2 C -3.4 C 11.0 km/h (2 Bft)
31.01.2009 16:00 -1.6 C 71 % 1015.0 hPa 0.0 l/m 4.2 km/h (1 Bft) NO 0.00 h 13 W/m -6.2 C -2.6 C 8.5 km/h (2 Bft)
31.01.2009 17:00 -1.6 C 70 % 1015.2 hPa 0.0 l/m 3.9 km/h (1 Bft) O 0.00 h 5 W/m -6.3 C -2.4 C 8.3 km/h (2 Bft)
31.01.2009 18:00 -1.4 C 70 % 1015.0 hPa 0.0 l/m 3.7 km/h (1 Bft) O-SO 0.00 h 0 W/m -6.2 C -2.2 C 7.0 km/h (2 Bft)
31.01.2009 19:00 -1.4 C 70 % 1014.3 hPa 0.0 l/m 0.4 km/h (0 Bft) SO 0.00 h 0 W/m -6.1 C -1.4 C 1.6 km/h (1 Bft)
31.01.2009 20:00 -1.4 C 70 % 1013.8 hPa 0.0 l/m 1.6 km/h (1 Bft) O 0.00 h 0 W/m -6.2 C -1.7 C 3.5 km/h (1 Bft)
31.01.2009 21:00 -1.1 C 68 % 1013.4 hPa 0.0 l/m 4.9 km/h (1 Bft) O-SO 0.00 h 0 W/m -6.3 C -2.6 C 8.8 km/h (2 Bft)
31.01.2009 22:00 -1.1 C 66 % 1012.8 hPa 0.0 l/m 5.9 km/h (2 Bft) O-SO 0.00 h 0 W/m -6.6 C -2.9 C 10.5 km/h (2 Bft)
31.01.2009 23:00 -1.0 C 66 % 1012.2 hPa 0.0 l/m 3.4 km/h (1 Bft) O-SO 0.00 h 0 W/m -6.6 C -1.8 C 6.6 km/h (2 Bft)
01.02.2009 00:00 -0.9 C 64 % 1011.6 hPa 0.0 l/m 3.4 km/h (1 Bft) O-SO 0.00 h 0 W/m -6.8 C -1.5 C 7.0 km/h (2 Bft)
01.02.2009 01:00 -0.9 C 63 % 1010.8 hPa 0.0 l/m 3.5 km/h (1 Bft) O 0.00 h 0 W/m -7.1 C -1.6 C 7.9 km/h (2 Bft)
01.02.2009 02:00 -1.1 C 64 % 1010.2 hPa 0.0 l/m 2.2 km/h (1 Bft) O 0.00 h 0 W/m -7.1 C -1.3 C 5.2 km/h (1 Bft)
01.02.2009 03:00 -1.2 C 62 % 1009.5 hPa 0.0 l/m 3.0 km/h (1 Bft) O 0.00 h 0 W/m -7.5 C -1.6 C 6.6 km/h (2 Bft)
01.02.2009 04:00 -1.4 C 64 % 1008.9 hPa 0.0 l/m 2.4 km/h (1 Bft) O 0.00 h 0 W/m -7.3 C -1.6 C 5.2 km/h (1 Bft)
01.02.2009 05:00 -1.6 C 66 % 1008.3 hPa 0.0 l/m 2.6 km/h (1 Bft) N-NO 0.00 h 0 W/m -7.2 C -2.0 C 5.9 km/h (2 Bft)
01.02.2009 06:00 -1.8 C 66 % 1007.7 hPa 0.0 l/m 1.8 km/h (1 Bft) NO 0.00 h 0 W/m -7.3 C -2.0 C 4.6 km/h (1 Bft)
01.02.2009 07:00 -1.9 C 66 % 1006.9 hPa 0.0 l/m 1.8 km/h (1 Bft) O 0.00 h 0 W/m -7.4 C -2.0 C 4.8 km/h (1 Bft)
01.02.2009 08:00 -1.9 C 65 % 1006.5 hPa 0.0 l/m 2.5 km/h (1 Bft) O 0.00 h 11 W/m -7.5 C -2.2 C 6.2 km/h (2 Bft)
01.02.2009 09:00 -1.7 C 65 % 1006.0 hPa 0.0 l/m 2.2 km/h (1 Bft) NO 0.00 h 26 W/m -7.4 C -2.1 C 5.2 km/h (1 Bft)
01.02.2009 10:00 -1.6 C 68 % 1005.5 hPa 0.0 l/m 2.4 km/h (1 Bft) NO 0.00 h 40 W/m -6.7 C -1.9 C 5.7 km/h (1 Bft)
01.02.2009 11:00 -1.7 C 72 % 1005.4 hPa 0.0 l/m 2.0 km/h (1 Bft) NO 0.00 h 48 W/m -6.0 C -1.8 C 5.1 km/h (1 Bft)
01.02.2009 12:00 -1.8 C 80 % 1005.1 hPa 0.2 l/m 1.8 km/h (1 Bft) N-NO 0.00 h 53 W/m -4.8 C -1.9 C 4.4 km/h (1 Bft)
01.02.2009 13:00 -1.8 C 82 % 1004.6 hPa 0.2 l/m 2.2 km/h (1 Bft) O 0.00 h 62 W/m -4.5 C -2.1 C 4.7 km/h (1 Bft)
01.02.2009 14:00 -1.3 C 80 % 1003.9 hPa 0.0 l/m 2.2 km/h (1 Bft) O-SO 0.00 h 121 W/m -4.3 C -1.6 C 5.1 km/h (1 Bft)
01.02.2009 15:00 -1.0 C 77 % 1003.6 hPa 0.0 l/m 2.2 km/h (1 Bft) O 0.00 h 80 W/m -4.4 C -1.2 C 4.4 km/h (1 Bft)
01.02.2009 16:00 -1.0 C 79 % 1003.7 hPa 0.0 l/m 1.7 km/h (1 Bft) O-SO 0.00 h 33 W/m -4.2 C -1.2 C 4.0 km/h (1 Bft)
01.02.2009 17:00 -1.3 C 81 % 1003.5 hPa 0.0 l/m 1.7 km/h (1 Bft) O 0.00 h 7 W/m -4.1 C -1.5 C 3.9 km/h (1 Bft)
01.02.2009 18:00 -1.5 C 85 % 1003.6 hPa 0.0 l/m 0.9 km/h (0 Bft) O 0.00 h 0 W/m -3.7 C -1.5 C 2.8 km/h (1 Bft)
01.02.2009 19:00 -1.4 C 84 % 1003.5 hPa 0.2 l/m 0.5 km/h (0 Bft) O-SO 0.00 h 0 W/m -3.8 C -1.4 C 2.1 km/h (1 Bft)
01.02.2009 20:00 -1.4 C 84 % 1003.6 hPa 0.2 l/m 0.2 km/h (0 Bft) N-NO 0.00 h 0 W/m -3.7 C -1.4 C 1.0 km/h (0 Bft)
01.02.2009 21:00 -1.6 C 87 % 1003.3 hPa 0.0 l/m 0.2 km/h (0 Bft) N-NO 0.00 h 0 W/m -3.5 C -1.6 C 1.2 km/h (1 Bft)
01.02.2009 22:00 -1.7 C 88 % 1003.1 hPa 0.0 l/m 0.3 km/h (0 Bft) N-NO 0.00 h 0 W/m -3.4 C -1.7 C 1.2 km/h (1 Bft)
01.02.2009 23:00 -1.6 C 89 % 1003.1 hPa 0.2 l/m 0.3 km/h (0 Bft) NO 0.00 h 0 W/m -3.2 C -1.7 C 1.1 km/h (1 Bft)
Min-Datum _ 26.01.09 01.02.09 26.01.09 - 26.01.09 - - - 01.02.09 31.01.09 26.01.09
_ Min-Zeit 08:09 01:06 00:15 - 00:01 - - - 03:20 10:00 00:10
Minimum _ -4.1 C 60 % 998.5 hPa - 0.0 km/h (0 Bft) - - - -7.7 C -7.8 C 0.0 km/h (0 Bft)
Max-Datum _ 26.01.09 27.01.09 30.01.09 01.02.09 31.01.09 - 26.01.09 28.01.09 26.01.09 26.01.09 31.01.09
_ Max-Zeit 14:52 08:39 11:00 12:37 10:00 - 08:12 12:30 14:44 14:49 12:34
Maximum _ 3.0 C 98 % 1021.2 hPa 0.2 l/m 17.4 km/h
O (3 Bft)
- 0.02 h 408 W/m -0.3 C 2.9 C 26.1 km/h
O (4 Bft)
Durchschnitt _ -0.5 C 80 % 1012.9 hPa #1.0 l/m 1.7 km/h (1 Bft) O #3:54 h 65 W/m -3.6 C -0.7 C 4.0 km/h (1 Bft)
© Kaiko 2009